Time;durP1;ratioP1;P1;durP2;ratioP2;P2;SDS_P1;SDS_P2;PMS_P1;PMS_P2;Temp;Humidity;BMP_temperature;BMP_pressure;BME280_temperature;BME280_humidity;BME280_pressure;Samples;Min_cycle;Max_cycle;Signal;HPM_P1;HPM_P2
2022/03/16 07:26:35;;;;;;;;;30.25;29.75;;;;;15.36;100.00;101445.00;6298069;22;45993;-88
2022/03/16 07:29:00;;;;;;;;;32.75;30.00;;;;;15.36;100.00;101447.66;6296656;22;47760;-87
2022/03/16 07:31:26;;;;;;;;;30.75;28.75;;;;;15.39;100.00;101453.03;6299806;22;45578;-88
2022/03/16 07:33:51;;;;;;;;;38.75;32.25;;;;;15.44;100.00;101451.44;6297410;22;45464;-87
2022/03/16 07:36:16;;;;;;;;;36.75;32.75;;;;;15.43;100.00;101452.31;6297821;22;45482;-88
2022/03/16 07:38:42;;;;;;;;;31.25;28.75;;;;;15.46;100.00;101457.69;6296862;22;47223;-88
2022/03/16 07:41:07;;;;;;;;;34.75;27.50;;;;;15.50;100.00;101464.00;6297968;22;45554;-88
2022/03/16 07:43:32;;;;;;;;;30.00;28.25;;;;;15.54;100.00;101452.69;6297062;22;45703;-87
2022/03/16 07:45:58;;;;;;;;;34.75;30.50;;;;;15.59;100.00;101466.97;6298194;22;45535;-86
2022/03/16 07:48:23;;;;;;;;;31.00;27.75;;;;;15.60;100.00;101454.66;6301420;22;46078;-87
2022/03/16 07:50:50;;;;;;;;;35.50;29.00;;;;;15.64;100.00;101456.59;6300708;22;45331;-86
2022/03/16 07:53:15;;;;;;;;;28.50;26.00;;;;;15.68;100.00;101454.94;6300966;22;45279;-87
2022/03/16 07:55:41;;;;;;;;;31.50;30.25;;;;;15.70;100.00;101455.88;6300411;22;45270;-87
2022/03/16 07:58:06;;;;;;;;;37.00;31.00;;;;;15.77;100.00;101470.25;6300434;22;46470;-87
2022/03/16 08:00:32;;;;;;;;;28.75;26.25;;;;;15.81;100.00;101467.75;6298577;22;45755;-87
2022/03/16 08:03:01;;;;;;;;;35.25;30.25;;;;;15.84;100.00;101465.22;6302299;22;45214;-86
2022/03/16 08:05:27;;;;;;;;;32.25;30.25;;;;;15.88;100.00;101463.56;6300789;22;45372;-87
2022/03/16 08:07:52;;;;;;;;;37.50;32.75;;;;;15.90;100.00;101466.28;6299287;22;47149;-87
2022/03/16 08:10:18;;;;;;;;;40.75;32.75;;;;;15.94;100.00;101471.75;6296946;22;45492;-87
2022/03/16 08:12:43;;;;;;;;;32.50;32.00;;;;;15.96;100.00;101464.75;6301368;22;45305;-87
2022/03/16 08:15:09;;;;;;;;;30.25;29.25;;;;;15.96;100.00;101461.19;6299055;22;45380;-87
2022/03/16 08:17:34;;;;;;;;;31.25;26.75;;;;;15.96;100.00;101462.09;6301690;22;45325;-87
2022/03/16 08:19:59;;;;;;;;;35.00;30.50;;;;;15.98;100.00;101451.53;6300485;22;63413;-88
2022/03/16 08:22:26;;;;;;;;;35.25;26.00;;;;;16.03;100.00;101460.56;6301645;22;45295;-87
2022/03/16 08:24:52;;;;;;;;;28.00;26.75;;;;;16.03;100.00;101467.63;6307378;22;45375;-86
2022/03/16 08:27:18;;;;;;;;;29.25;27.25;;;;;16.03;100.00;101462.31;6301980;22;48120;-87
2022/03/16 08:29:43;;;;;;;;;34.75;32.25;;;;;16.04;100.00;101472.94;6301026;22;45386;-86
2022/03/16 08:32:08;;;;;;;;;31.50;28.75;;;;;16.03;100.00;101462.31;6298430;22;45323;-85
2022/03/16 08:34:34;;;;;;;;;36.75;31.75;;;;;16.06;100.00;101470.38;6296583;22;45672;-86
2022/03/16 08:37:00;;;;;;;;;36.75;32.00;;;;;16.07;100.00;101467.81;6302565;22;53157;-87
2022/03/16 08:39:26;;;;;;;;;38.75;35.00;;;;;16.11;100.00;101481.13;6303178;22;45360;-87
2022/03/16 08:41:52;;;;;;;;;45.25;39.50;;;;;16.13;100.00;101476.81;6301253;22;45292;-88
2022/03/16 08:44:17;;;;;;;;;44.50;36.75;;;;;16.18;100.00;101478.72;6302474;22;45347;-88
2022/03/16 08:46:43;;;;;;;;;36.00;33.75;;;;;16.20;100.00;101481.47;6302163;22;47730;-87
2022/03/16 08:49:08;;;;;;;;;36.00;32.00;;;;;16.23;100.00;101486.88;6304981;22;45415;-87
2022/03/16 08:51:33;;;;;;;;;33.75;24.00;;;;;16.29;100.00;101497.66;6303127;22;45753;-88
2022/03/16 08:53:59;;;;;;;;;36.50;32.25;;;;;16.36;100.00;101498.78;6304040;22;45221;-87
2022/03/16 08:56:24;;;;;;;;;39.00;33.25;;;;;16.39;100.00;101498.84;6304598;22;47211;-88
2022/03/16 08:58:49;;;;;;;;;34.50;32.00;;;;;16.49;100.00;101505.34;6302316;22;45899;-88
2022/03/16 09:01:15;;;;;;;;;31.33;27.33;;;;;16.57;100.00;101513.56;6305668;22;45333;-88
2022/03/16 09:03:40;;;;;;;;;38.75;29.25;;;;;16.61;100.00;101523.44;6307138;22;45245;-88
2022/03/16 09:06:08;;;;;;;;;29.67;27.00;;;;;16.72;100.00;101513.19;6304554;22;45329;-88
2022/03/16 09:08:34;;;;;;;;;29.50;27.00;;;;;16.71;100.00;101519.31;6300493;22;45383;-87
2022/03/16 09:10:59;;;;;;;;;35.50;33.25;;;;;16.82;100.00;101513.47;6305832;22;45439;-88
2022/03/16 09:13:24;;;;;;;;;28.75;28.00;;;;;16.90;100.00;101517.28;6301494;22;45340;-87
2022/03/16 09:15:53;;;;;;;;;34.25;30.25;;;;;16.97;100.00;101518.34;6299213;22;47291;-88
2022/03/16 09:18:18;;;;;;;;;30.25;29.50;;;;;17.04;100.00;101525.63;6330302;22;44694;-87
2022/03/16 09:20:44;;;;;;;;;33.25;30.00;;;;;17.05;100.00;101523.91;6328155;22;44852;-88
2022/03/16 09:23:10;;;;;;;;;31.50;27.75;;;;;17.05;100.00;101519.50;6326573;22;45341;-87
2022/03/16 09:25:36;;;;;;;;;29.50;27.50;;;;;17.13;100.00;101532.09;6327733;22;47019;-87
2022/03/16 09:28:02;;;;;;;;;33.75;28.00;;;;;17.17;100.00;101534.91;6329471;22;44688;-87
2022/03/16 09:30:27;;;;;;;;;36.00;30.00;;;;;17.20;100.00;101529.72;6315508;22;45427;-88
2022/03/16 09:32:57;;;;;;;;;35.50;29.75;;;;;17.34;100.00;101531.88;6311975;22;45257;-87
2022/03/16 09:35:25;;;;;;;;;35.00;29.00;;;;;17.46;100.00;101538.41;6314845;22;45414;-88
2022/03/16 09:37:53;;;;;;;;;36.00;31.00;;;;;17.53;100.00;101519.13;6319237;22;45397;-88
2022/03/16 09:40:18;;;;;;;;;36.25;30.25;;;;;17.63;100.00;101523.84;6325967;22;44669;-88
2022/03/16 09:42:47;;;;;;;;;34.00;31.00;;;;;17.79;100.00;101534.00;6317028;22;45288;-88
2022/03/16 09:45:20;;;;;;;;;34.00;31.25;;;;;17.81;100.00;101541.16;6312074;22;46392;-88
2022/03/16 09:47:47;;;;;;;;;34.00;31.67;;;;;17.81;100.00;101534.94;6317712;22;45307;-88
2022/03/16 09:50:14;;;;;;;;;35.75;33.00;;;;;17.85;100.00;101551.03;6314226;22;44856;-85
2022/03/16 09:52:40;;;;;;;;;33.75;29.50;;;;;17.79;100.00;101547.28;6318635;22;45288;-88
2022/03/16 09:55:06;;;;;;;;;34.50;29.50;;;;;17.81;100.00;101537.59;6315245;22;48367;-87
2022/03/16 09:57:32;;;;;;;;;36.50;33.75;;;;;17.89;100.00;101537.81;6316142;22;45387;-88
2022/03/16 09:59:59;;;;;;;;;33.25;29.00;;;;;17.95;100.00;101524.72;6299896;22;45275;-88
2022/03/16 10:02:26;;;;;;;;;30.50;28.50;;;;;18.06;100.00;101536.53;6298779;22;45478;-88
2022/03/16 10:04:53;;;;;;;;;36.50;32.25;;;;;18.19;100.00;101528.91;6301646;22;45464;-88
2022/03/16 10:07:26;;;;;;;;;37.25;30.25;;;;;18.28;100.00;101522.94;6300674;22;45372;-88
2022/03/16 10:15:20;;;;;;;;;39.25;32.25;;;;;18.45;100.00;101533.13;6293722;22;45003;-88
2022/03/16 10:18:14;;;;;;;;;44.00;35.50;;;;;18.68;100.00;101549.63;6307190;22;45281;-89
2022/03/16 10:20:40;;;;;;;;;33.00;29.25;;;;;18.63;100.00;101540.66;6314965;22;45322;-87
2022/03/16 10:23:24;;;;;;;;;36.25;33.50;;;;;18.79;100.00;101549.88;6313672;22;45408;-88
2022/03/16 10:25:52;;;;;;;;;36.25;29.75;;;;;18.75;100.00;101553.34;6313914;22;45658;-88
2022/03/16 10:28:23;;;;;;;;;35.50;31.50;;;;;18.74;100.00;101549.78;6316454;22;45243;-88
2022/03/16 10:31:08;;;;;;;;;36.75;32.75;;;;;18.84;100.00;101555.31;6318808;22;45326;-88
2022/03/16 10:33:48;;;;;;;;;37.75;31.50;;;;;18.84;100.00;101549.97;6319560;22;45451;-89
2022/03/16 10:36:16;;;;;;;;;35.75;34.00;;;;;18.91;100.00;101554.63;6325975;22;45491;-88
2022/03/16 10:39:06;;;;;;;;;37.25;32.75;;;;;19.04;100.00;101544.25;6315935;22;45304;-88
2022/03/16 10:47:15;;;;;;;;;32.67;28.67;;;;;19.31;100.00;101551.06;6303941;22;45879;-89
2022/03/16 10:49:41;;;;;;;;;36.00;33.00;;;;;19.29;100.00;101559.03;6300643;22;45307;-88
2022/03/16 10:52:13;;;;;;;;;38.00;34.25;;;;;19.41;100.00;101545.09;6303653;22;45589;-88
2022/03/16 10:54:38;;;;;;;;;34.00;33.50;;;;;19.44;100.00;101538.94;6301768;22;45700;-89
2022/03/16 10:57:06;;;;;;;;;37.50;33.25;;;;;19.61;100.00;101536.59;6305332;22;46517;-88
2022/03/16 10:59:34;;;;;;;;;34.00;31.75;;;;;19.74;100.00;101529.75;6307189;22;45517;-89
2022/03/16 11:02:13;;;;;;;;;41.75;35.75;;;;;19.85;100.00;101526.41;6301572;22;45267;-88
2022/03/16 11:04:44;;;;;;;;;38.00;32.50;;;;;19.91;100.00;101523.88;6301435;22;45359;-88
2022/03/16 11:07:10;;;;;;;;;38.25;35.50;;;;;20.04;100.00;101532.09;6302126;22;46678;-88
2022/03/16 11:09:37;;;;;;;;;36.50;32.25;;;;;20.14;100.00;101523.44;6298299;22;45340;-87
2022/03/16 11:14:49;;;;;;;;;37.33;31.33;;;;;20.35;100.00;101519.34;6315208;22;45269;-86
2022/03/16 11:17:15;;;;;;;;;38.75;34.25;;;;;20.40;100.00;101516.75;6322909;22;45246;-92
2022/03/16 11:19:46;;;;;;;;;29.67;29.33;;;;;20.48;100.00;101517.78;6318527;22;45207;-91
2022/03/16 11:22:16;;;;;;;;;39.00;34.00;;;;;20.56;100.00;101507.25;6314714;22;45423;-88
2022/03/16 11:24:55;;;;;;;;;39.25;35.00;;;;;20.68;100.00;101508.28;6316724;22;45367;-86
2022/03/16 11:27:31;;;;;;;;;34.75;30.75;;;;;20.72;100.00;101520.81;6317375;22;46494;-87
2022/03/16 11:30:08;;;;;;;;;42.25;33.75;;;;;20.84;100.00;101515.66;6315782;22;45843;-87
2022/03/16 11:32:39;;;;;;;;;39.25;35.00;;;;;21.08;100.00;101514.25;6314199;22;45340;-87
2022/03/16 11:35:14;;;;;;;;;44.00;36.00;;;;;21.30;100.00;101511.88;6315340;22;45703;-86
2022/03/16 11:37:45;;;;;;;;;43.75;35.50;;;;;21.34;100.00;101502.09;6313800;22;45467;-86
2022/03/16 11:40:23;;;;;;;;;41.50;36.75;;;;;21.49;100.00;101490.72;6317314;22;44669;-89
2022/03/16 11:43:12;;;;;;;;;37.00;33.25;;;;;21.58;100.00;101505.06;6317484;22;44729;-89
2022/03/16 11:45:43;;;;;;;;;41.25;35.25;;;;;21.48;100.00;101496.03;6316358;22;45442;-89
2022/03/16 11:48:33;;;;;;;;;40.25;34.75;;;;;21.55;100.00;101495.22;6315365;22;46010;-90
2022/03/16 11:51:13;;;;;;;;;31.67;30.00;;;;;21.54;100.00;101490.78;6306945;22;45638;-89
2022/03/16 11:53:58;;;;;;;;;39.50;36.00;;;;;21.66;100.00;101490.03;6306288;22;45268;-90
2022/03/16 11:56:29;;;;;;;;;49.75;37.50;;;;;21.91;100.00;101490.28;6304702;22;45377;-90
2022/03/16 11:59:02;;;;;;;;;40.75;34.25;;;;;22.19;100.00;101492.31;6299030;22;47145;-90
2022/03/16 12:01:28;;;;;;;;;43.75;34.00;;;;;22.44;100.00;101479.19;6300083;22;45416;-90
2022/03/16 12:04:08;;;;;;;;;39.50;36.50;;;;;22.82;100.00;101495.50;6301475;22;45316;-90
2022/03/16 12:07:01;;;;;;;;;38.75;32.25;;;;;23.07;100.00;101480.47;6298881;22;45539;-91
2022/03/16 12:09:44;;;;;;;;;36.75;35.75;;;;;23.32;100.00;101477.00;6300034;22;45261;-91
2022/03/16 12:15:24;;;;;;;;;40.33;34.67;;;;;23.63;100.00;101469.06;6301493;22;45389;-89
2022/03/16 12:17:52;;;;;;;;;43.50;35.00;;;;;23.65;100.00;101469.97;6280258;22;45590;-90
2022/03/16 12:20:20;;;;;;;;;38.25;35.75;;;;;23.65;100.00;101450.31;6299853;22;46162;-91
2022/03/16 12:22:48;;;;;;;;;38.25;32.00;;;;;23.61;100.00;101460.13;6298912;22;45340;-87
2022/03/16 12:25:22;;;;;;;;;41.25;34.00;;;;;23.77;100.00;101449.44;6292040;22;45303;-88
2022/03/16 12:30:39;;;;;;;;;38.00;34.25;;;;;23.71;100.00;101454.81;6301486;22;45597;-88
2022/03/16 12:33:05;;;;;;;;;39.50;32.50;;;;;23.47;100.00;101449.38;6301524;22;45535;-89
2022/03/16 12:35:34;;;;;;;;;36.50;32.75;;;;;23.40;100.00;101434.19;6301287;22;45358;-89
2022/03/16 12:38:00;;;;;;;;;37.75;34.25;;;;;23.24;100.00;101427.88;6327128;22;45460;-89
2022/03/16 12:40:26;;;;;;;;;36.75;32.50;;;;;23.17;100.00;101429.63;6300267;22;47154;-91
2022/03/16 12:42:53;;;;;;;;;37.75;34.00;;;;;23.03;100.00;101425.13;6298344;22;45847;-91
2022/03/16 12:45:21;;;;;;;;;39.67;33.67;;;;;23.07;100.00;101426.91;6309606;22;45259;-89
2022/03/16 12:47:56;;;;;;;;;34.67;30.00;;;;;23.08;100.00;101409.97;6309159;22;45324;-91
2022/03/16 12:50:26;;;;;;;;;36.67;32.33;;;;;23.12;100.00;101416.22;6305756;22;45505;-91
2022/03/16 12:52:51;;;;;;;;;35.67;30.67;;;;;23.03;100.00;101400.13;6325683;22;45279;-90
2022/03/16 12:55:18;;;;;;;;;34.33;30.00;;;;;23.06;100.00;101409.09;6324427;22;44778;-91
2022/03/16 12:57:52;;;;;;;;;27.67;25.67;;;;;23.17;100.00;101405.50;6317634;22;45593;-90
2022/03/16 13:00:17;;;;;;;;;28.00;27.00;;;;;23.01;100.00;101409.94;6316735;22;47124;-91
2022/03/16 13:02:43;;;;;;;;;28.00;24.67;;;;;22.95;100.00;101411.72;6302084;22;45541;-90
2022/03/16 13:05:10;;;;;;;;;34.67;29.33;;;;;22.94;100.00;101409.00;6300224;22;45407;-90
2022/03/16 13:07:37;;;;;;;;;28.67;25.67;;;;;22.92;100.00;101406.34;6304558;22;45612;-91
2022/03/16 13:10:05;;;;;;;;;24.00;24.00;;;;;22.98;100.00;101411.72;6325016;22;47210;-90
2022/03/16 13:12:31;;;;;;;;;28.67;26.67;;;;;22.96;100.00;101408.13;6322779;22;44898;-90
2022/03/16 13:14:57;;;;;;;;;31.00;24.33;;;;;23.07;100.00;101412.63;6319639;22;44973;-89
2022/03/16 13:17:24;;;;;;;;;29.67;28.00;;;;;22.99;100.00;101408.16;6309699;22;45254;-90
2022/03/16 13:19:54;;;;;;;;;26.67;22.00;;;;;23.02;100.00;101409.03;6304433;22;46245;-90
2022/03/16 13:22:25;;;;;;;;;36.00;30.00;;;;;23.10;100.00;101407.28;6304191;22;45284;-91
2022/03/16 13:24:50;;;;;;;;;29.67;26.00;;;;;23.20;100.00;101417.16;6302013;22;45239;-91
2022/03/16 13:27:25;;;;;;;;;27.67;23.00;;;;;23.41;100.00;101427.91;6302092;22;45268;-90
2022/03/16 13:29:53;;;;;;;;;26.00;20.67;;;;;23.32;100.00;101434.16;6301478;22;47064;-91
2022/03/16 13:32:27;;;;;;;;;16.33;14.00;;;;;23.34;100.00;101432.38;6298901;22;45851;-91
2022/03/16 13:34:52;;;;;;;;;28.67;26.33;;;;;23.23;100.00;101429.66;6301601;22;45331;-91
2022/03/16 13:37:26;;;;;;;;;31.00;24.67;;;;;23.36;100.00;101430.56;6301897;22;45363;-90
2022/03/16 13:40:07;;;;;;;;;25.00;22.33;;;;;23.44;100.00;101433.28;6300337;22;48307;-91
2022/03/16 13:42:41;;;;;;;;;28.00;25.00;;;;;23.49;100.00;101430.59;6299286;22;45755;-90
2022/03/16 13:45:30;;;;;;;;;30.67;27.33;;;;;23.53;100.00;101433.31;6299887;22;45280;-90
2022/03/16 13:48:11;;;;;;;;;25.67;25.33;;;;;23.53;100.00;101444.03;6299529;22;45555;-90
2022/03/16 13:50:37;;;;;;;;;26.67;23.67;;;;;23.44;100.00;101442.22;6299834;22;45415;-91
2022/03/16 13:53:21;;;;;;;;;32.00;26.67;;;;;23.59;100.00;101450.31;6298710;22;45401;-90
2022/03/16 13:55:51;;;;;;;;;31.67;26.00;;;;;23.56;100.00;101456.53;6302599;22;45257;-93
2022/03/16 13:58:26;;;;;;;;;27.00;25.67;;;;;23.58;100.00;101464.59;6298485;22;45460;-91
2022/03/16 14:00:58;;;;;;;;;30.67;26.33;;;;;23.56;100.00;101453.88;6297316;22;48176;-92
2022/03/16 14:03:26;;;;;;;;;30.00;27.67;;;;;23.49;100.00;101454.72;6299298;22;45436;-92
2022/03/16 14:05:53;;;;;;;;;25.33;24.00;;;;;23.53;100.00;101451.16;6300129;22;45426;-93
2022/03/16 14:08:19;;;;;;;;;23.00;22.33;;;;;23.48;100.00;101440.41;6300524;22;45312;-92
2022/03/16 14:10:48;;;;;;;;;23.00;22.00;;;;;23.49;100.00;101454.72;6299792;22;47660;-92
2022/03/16 14:13:14;;;;;;;;;2718.00;2717.75;;;;;23.46;100.00;101468.09;6300217;22;45244;-93
2022/03/16 14:15:40;;;;;;;;;29.33;22.67;;;;;23.43;100.00;101464.53;6299080;22;45381;-92
2022/03/16 14:18:12;;;;;;;;;28.00;25.33;;;;;23.45;100.00;101461.88;6325214;22;45809;-91
2022/03/16 14:20:48;;;;;;;;;24.67;21.67;;;;;23.32;100.00;101460.94;6300873;22;45465;-92
2022/03/16 14:23:14;;;;;;;;;23.67;21.00;;;;;23.21;100.00;101455.53;6298576;22;45357;-92
2022/03/16 14:25:47;;;;;;;;;26.00;22.00;;;;;23.19;100.00;101450.16;6300755;22;45331;-92
2022/03/16 14:28:13;;;;;;;;;17.33;17.00;;;;;23.04;100.00;101451.00;6325468;22;45177;-92
2022/03/16 14:30:45;;;;;;;;;20.67;18.33;;;;;22.92;100.00;101464.31;6325269;22;47070;-91
2022/03/16 14:33:10;;;;;;;;;19.33;17.33;;;;;22.73;100.00;101469.59;6301765;22;45377;-92
2022/03/16 14:35:38;;;;;;;;;22.67;21.67;;;;;22.63;100.00;101450.75;6324145;22;45597;-92
2022/03/16 14:38:08;;;;;;;;;17.33;16.33;;;;;22.51;100.00;101439.97;6297383;22;45579;-92
2022/03/16 14:40:41;;;;;;;;;21.67;18.67;;;;;22.35;100.00;101441.66;6305651;22;45482;-90
2022/03/16 14:43:08;;;;;;;;;23.00;18.33;;;;;22.21;100.00;101446.00;6300999;22;45918;-92
2022/03/16 14:45:35;;;;;;;;;20.00;17.67;;;;;22.04;100.00;101440.53;6303384;22;45781;-92
2022/03/16 14:48:08;;;;;;;;;23.33;18.00;;;;;21.99;100.00;101450.28;6305001;22;45359;-91
2022/03/16 14:50:33;;;;;;;;;14.00;14.00;;;;;21.83;100.00;101446.53;6299870;22;46163;-91
2022/03/16 14:53:08;;;;;;;;;23.33;20.00;;;;;21.84;100.00;101446.56;6299719;22;45309;-92
2022/03/16 14:55:34;;;;;;;;;19.67;18.00;;;;;21.67;100.00;101443.75;6304950;22;45703;-92
2022/03/16 14:58:02;;;;;;;;;20.00;20.00;;;;;21.54;100.00;101445.38;6298760;22;45323;-92
2022/03/16 15:00:27;;;;;;;;;21.33;14.67;;;;;21.43;100.00;101432.81;6303139;22;45338;-92
2022/03/16 15:02:57;;;;;;;;;19.33;14.67;;;;;21.36;100.00;101435.41;6328258;22;45673;-93
2022/03/16 15:05:22;;;;;;;;;13.33;13.33;;;;;21.19;100.00;101439.66;6303452;22;45296;-93
2022/03/16 15:07:48;;;;;;;;;20.33;16.00;;;;;21.10;100.00;101434.22;6302010;22;45317;-93
2022/03/16 15:10:18;;;;;;;;;16.67;15.00;;;;;21.01;100.00;101431.38;6301373;22;46565;-91
2022/03/16 15:12:43;;;;;;;;;16.67;14.00;;;;;20.90;100.00;101437.47;6300446;22;45608;-91
2022/03/16 15:15:10;;;;;;;;;15.67;13.67;;;;;20.81;100.00;101434.69;6300852;22;45272;-91
2022/03/16 15:17:36;;;;;;;;;17.00;14.67;;;;;20.63;100.00;101428.22;6300374;22;45632;-92
2022/03/16 15:20:03;;;;;;;;;18.33;15.33;;;;;20.55;100.00;101417.44;6301156;22;45974;-92
2022/03/16 15:22:30;;;;;;;;;22.67;17.67;;;;;20.52;100.00;101414.72;6300337;22;45411;-92
2022/03/16 15:24:55;;;;;;;;;16.00;16.00;;;;;20.45;100.00;101407.50;6324826;22;45373;-92
2022/03/16 15:27:21;;;;;;;;;18.67;17.67;;;;;20.42;100.00;101408.38;6299711;22;45736;-91
2022/03/16 15:29:47;;;;;;;;;17.33;16.00;;;;;20.34;100.00;101402.00;6299825;22;46967;-92
2022/03/16 15:32:14;;;;;;;;;17.33;15.33;;;;;20.24;100.00;101400.97;6298791;22;45321;-92
2022/03/16 15:34:45;;;;;;;;;19.67;17.00;;;;;20.25;100.00;101394.78;6324878;22;45526;-92
2022/03/16 15:37:11;;;;;;;;;21.33;18.33;;;;;20.11;100.00;101384.75;6298850;22;45271;-91
2022/03/16 15:39:38;;;;;;;;;20.33;19.00;;;;;20.15;100.00;101378.63;6324522;22;46687;-91
2022/03/16 15:44:50;;;;;;;;;24.33;19.33;;;;;20.00;100.00;101363.28;6300215;22;45453;-92
2022/03/16 15:47:17;;;;;;;;;22.33;20.00;;;;;19.96;100.00;101364.09;6299513;22;45472;-90
2022/03/16 15:49:42;;;;;;;;;34.00;27.33;;;;;19.89;100.00;101360.47;6296976;22;47418;-93
2022/03/16 15:52:08;;;;;;;;;23.00;21.67;;;;;19.86;100.00;101355.06;6324167;22;45375;-93
2022/03/16 15:54:37;;;;;;;;;20.00;20.00;;;;;19.74;100.00;101361.97;6325862;22;45395;-93
2022/03/16 15:57:04;;;;;;;;;23.67;20.67;;;;;19.67;100.00;101362.75;6301168;22;45291;-93
2022/03/16 15:59:29;;;;;;;;;21.67;19.33;;;;;19.57;100.00;101356.38;6299453;22;46183;-93
2022/03/16 16:01:55;;;;;;;;;22.00;22.00;;;;;19.54;100.00;101350.97;6323412;22;45285;-92
2022/03/16 16:04:20;;;;;;;;;22.00;18.00;;;;;19.48;100.00;101350.88;6324553;22;45391;-91
2022/03/16 16:06:49;;;;;;;;;21.33;18.67;;;;;19.41;100.00;101345.44;6325044;22;45302;-93
2022/03/16 16:09:17;;;;;;;;;21.33;20.00;;;;;19.37;100.00;101338.28;6325147;22;48378;-92
2022/03/16 16:11:44;;;;;;;;;22.00;19.67;;;;;19.33;100.00;101340.88;6298740;22;45616;-91
2022/03/16 16:14:10;;;;;;;;;21.67;21.00;;;;;19.26;100.00;101340.72;6324904;22;45432;-92
2022/03/16 16:16:35;;;;;;;;;21.67;19.33;;;;;19.26;100.00;101339.84;6329662;22;45418;-93
2022/03/16 16:19:00;;;;;;;;;27.33;22.00;;;;;19.26;100.00;101353.13;6340102;22;53774;-92
2022/03/16 16:21:26;;;;;;;;;22.67;21.33;;;;;19.25;100.00;101346.03;6305712;22;45792;-92
2022/03/16 16:23:51;;;;;;;;;27.33;22.67;;;;;19.19;100.00;101338.84;6303273;22;45342;-93
2022/03/16 16:26:16;;;;;;;;;20.00;20.00;;;;;19.18;100.00;101332.59;6284395;22;45415;-90
2022/03/16 16:28:42;;;;;;;;;24.00;21.67;;;;;19.18;100.00;101331.69;6269929;22;46134;-90
2022/03/16 16:31:09;;;;;;;;;19.33;17.67;;;;;19.20;100.00;101335.28;6272781;22;45341;-92
2022/03/16 16:33:35;;;;;;;;;20.00;17.67;;;;;19.12;100.00;101342.22;6269379;22;45340;-92
2022/03/16 16:36:02;;;;;;;;;26.33;22.00;;;;;19.12;100.00;101337.75;6270745;22;45378;-91
2022/03/16 16:38:28;;;;;;;;;24.00;20.00;;;;;19.10;100.00;101347.47;6269766;22;45517;-91
2022/03/16 16:40:56;;;;;;;;;25.67;17.67;;;;;19.20;100.00;101357.47;6243434;22;53845;-92
2022/03/16 16:43:22;;;;;;;;;23.00;19.33;;;;;19.17;100.00;101359.16;6290260;22;44736;-92
2022/03/16 16:45:54;;;;;;;;;22.00;18.67;;;;;19.18;100.00;101356.56;6253418;22;45658;-89
2022/03/16 16:48:24;;;;;;;;;21.67;17.67;;;;;19.19;100.00;101353.03;6276975;22;46614;-91
2022/03/16 16:50:52;;;;;;;;;24.67;24.33;;;;;19.20;100.00;101343.25;6269127;22;46228;-91
2022/03/16 16:53:20;;;;;;;;;20.67;19.00;;;;;19.17;100.00;101344.06;6270056;22;45344;-91
2022/03/16 16:55:47;;;;;;;;;19.00;17.33;;;;;19.16;100.00;101338.72;6276540;22;45237;-91
2022/03/16 16:58:12;;;;;;;;;22.67;18.67;;;;;19.12;100.00;101351.06;6282923;22;45458;-91
2022/03/16 17:00:39;;;;;;;;;21.00;21.00;;;;;19.15;100.00;101355.56;6277187;22;45487;-90
2022/03/16 17:03:05;;;;;;;;;18.67;18.00;;;;;19.08;100.00;101362.53;6278550;22;45313;-90
2022/03/16 17:05:31;;;;;;;;;18.67;17.67;;;;;19.05;100.00;101371.34;6247804;22;45399;-91
2022/03/16 17:08:07;;;;;;;;;19.00;18.33;;;;;19.12;100.00;101369.69;6245918;22;47937;-88
2022/03/16 17:10:35;;;;;;;;;25.67;23.33;;;;;19.08;100.00;101373.16;6248658;22;45332;-89
2022/03/16 17:13:02;;;;;;;;;25.67;21.67;;;;;19.00;100.00;101373.00;6273190;22;45375;-90
2022/03/16 17:15:28;;;;;;;;;23.50;21.00;;;;;18.96;100.00;101376.50;6249212;22;45455;-90
2022/03/16 17:17:55;;;;;;;;;24.33;23.00;;;;;18.94;100.00;101372.91;6250962;22;47196;-91
2022/03/16 17:20:23;;;;;;;;;19.67;17.67;;;;;18.92;100.00;101379.94;6290299;22;45323;-88
2022/03/16 17:22:51;;;;;;;;;22.67;21.67;;;;;18.86;100.00;101380.72;6296017;22;45052;-89
2022/03/16 17:25:18;;;;;;;;;22.67;21.00;;;;;18.81;100.00;101385.03;6286680;22;45497;-91
2022/03/16 17:27:44;;;;;;;;;23.33;19.33;;;;;18.75;100.00;101383.16;6326808;22;48397;-90
2022/03/16 17:30:14;;;;;;;;;20.00;18.33;;;;;18.80;100.00;101384.16;6301695;22;45269;-90
2022/03/16 17:32:40;;;;;;;;;19.33;19.00;;;;;18.70;100.00;101382.16;6301086;22;45368;-90
2022/03/16 17:35:09;;;;;;;;;19.33;18.00;;;;;18.67;100.00;101395.38;6306461;22;45310;-90
2022/03/16 17:37:38;;;;;;;;;20.67;20.00;;;;;18.59;100.00;101388.13;6308599;22;46437;-90
2022/03/16 17:40:07;;;;;;;;;28.00;23.00;;;;;18.57;100.00;101389.84;6326451;22;45281;-90
2022/03/16 17:45:32;;;;;;;;;24.33;21.67;;;;;18.57;100.00;101383.63;6302561;22;45342;-90
2022/03/16 17:48:04;;;;;;;;;21.67;20.33;;;;;18.67;100.00;101385.63;6332759;22;47638;-90
2022/03/16 17:50:57;;;;;;;;;22.33;19.00;;;;;18.58;100.00;101370.38;6330126;22;45510;-92
2022/03/16 17:53:25;;;;;;;;;27.67;22.33;;;;;18.51;100.00;101381.72;6301175;22;45822;-90
2022/03/16 17:58:35;;;;;;;;;25.67;22.33;;;;;18.39;100.00;101390.34;6302017;22;45241;-91
2022/03/16 18:01:01;;;;;;;;;23.67;19.33;;;;;18.43;100.00;101392.19;6301587;22;45365;-90
2022/03/16 18:03:27;;;;;;;;;26.67;22.33;;;;;18.39;100.00;101401.88;6299882;22;45305;-90
2022/03/16 18:05:53;;;;;;;;;24.67;22.33;;;;;18.44;100.00;101401.97;6303830;22;45309;-90
2022/03/16 18:08:21;;;;;;;;;20.67;18.00;;;;;18.41;100.00;101409.88;6301300;22;46191;-90
2022/03/16 18:13:34;;;;;;;;;28.33;22.67;;;;;18.33;100.00;101407.03;6302060;22;45277;-90
2022/03/16 18:16:01;;;;;;;;;26.00;20.67;;;;;18.34;100.00;101407.94;6325668;22;45756;-90
2022/03/16 18:18:28;;;;;;;;;24.00;21.67;;;;;18.30;100.00;101410.50;6325401;22;47263;-89
2022/03/16 18:20:57;;;;;;;;;19.67;19.67;;;;;18.31;100.00;101408.75;6299329;22;46367;-89
2022/03/16 18:23:24;;;;;;;;;23.33;20.67;;;;;18.31;100.00;101408.75;6301298;22;45367;-92
2022/03/16 18:25:50;;;;;;;;;26.67;22.33;;;;;18.27;100.00;101409.56;6300470;22;45550;-91
2022/03/16 18:28:17;;;;;;;;;25.00;22.33;;;;;18.28;100.00;101416.66;6325774;22;47868;-91
2022/03/16 18:30:47;;;;;;;;;26.67;22.67;;;;;18.25;100.00;101417.47;6298660;22;45317;-91
2022/03/16 18:33:13;;;;;;;;;24.67;20.67;;;;;18.26;100.00;101421.94;6299545;22;45367;-91
2022/03/16 18:35:39;;;;;;;;;23.33;19.67;;;;;18.21;100.00;101428.91;6301108;22;45671;-91
2022/03/16 18:38:06;;;;;;;;;21.00;20.00;;;;;18.25;100.00;101433.41;6300193;22;45552;-90
2022/03/16 18:40:32;;;;;;;;;22.00;19.67;;;;;18.20;100.00;101427.09;6301088;22;45343;-90
2022/03/16 18:42:57;;;;;;;;;26.67;23.33;;;;;18.17;100.00;101430.53;6301582;22;45327;-90
2022/03/16 18:45:25;;;;;;;;;27.67;24.00;;;;;18.23;100.00;101437.78;6300127;22;45315;-90
2022/03/16 18:47:52;;;;;;;;;22.33;22.00;;;;;18.16;100.00;101439.38;6325364;22;47345;-92
2022/03/16 18:50:17;;;;;;;;;25.33;23.67;;;;;18.14;100.00;101435.75;6300791;22;45369;-90
2022/03/16 18:52:43;;;;;;;;;27.33;23.33;;;;;18.19;100.00;101441.22;6299860;22;45336;-89
2022/03/16 18:55:08;;;;;;;;;26.67;24.00;;;;;18.13;100.00;101435.72;6301775;22;45316;-89
2022/03/16 18:57:33;;;;;;;;;24.67;22.67;;;;;18.10;100.00;101433.91;6300696;22;45389;-90
2022/03/16 18:59:59;;;;;;;;;22.33;20.00;;;;;18.12;100.00;101437.50;6300562;22;45269;-90
2022/03/16 19:02:24;;;;;;;;;24.00;22.33;;;;;18.11;100.00;101440.13;6325753;22;45379;-90
2022/03/16 19:04:50;;;;;;;;;27.00;23.33;;;;;18.11;100.00;101450.75;6299053;22;45428;-92